Time;durP1;ratioP1;P1;durP2;ratioP2;P2;SDS_P1;SDS_P2;PMS_P1;PMS_P2;Temp;Humidity;BMP_temperature;BMP_pressure;BME280_temperature;BME280_humidity;BME280_pressure;Samples;Min_cycle;Max_cycle;Signal;HPM_P1;HPM_P2
2023/10/02 00:01:06;;;;;;;19.92;7.68;;;15.60;1.00;;;;;;5032781;28;20861;-75
2023/10/02 00:03:34;;;;;;;17.33;8.67;;;15.60;1.00;;;;;;5030194;28;20055;-75
2023/10/02 00:06:00;;;;;;;16.65;7.15;;;15.50;1.00;;;;;;5048125;28;20329;-75
2023/10/02 00:08:34;;;;;;;16.85;8.40;;;15.40;1.00;;;;;;5040112;28;20470;-75
2023/10/02 00:17:00;;;;;;;16.52;7.28;;;15.20;1.00;;;;;;5040912;28;20060;-74
2023/10/02 00:19:45;;;;;;;16.45;7.65;;;15.20;1.00;;;;;;5029178;28;20029;-75
2023/10/02 00:22:37;;;;;;;15.45;6.80;;;15.10;1.00;;;;;;5030088;28;20056;-74
2023/10/02 00:25:09;;;;;;;18.65;7.57;;;15.10;1.00;;;;;;5055835;28;20070;-75
2023/10/02 00:27:38;;;;;;;15.80;8.23;;;15.10;1.00;;;;;;5055765;28;20072;-74
2023/10/02 00:30:07;;;;;;;21.35;8.45;;;15.10;1.00;;;;;;5050253;28;20040;-75
2023/10/02 00:32:34;;;;;;;16.48;6.72;;;15.10;1.00;;;;;;5035878;28;20037;-75
2023/10/02 00:35:02;;;;;;;16.52;7.40;;;15.20;1.00;;;;;;5031518;28;20040;-75
2023/10/02 00:37:44;;;;;;;20.05;8.07;;;15.20;1.00;;;;;;5027453;28;20124;-74
2023/10/02 00:40:21;;;;;;;16.55;7.80;;;15.20;1.00;;;;;;5031566;28;20049;-74
2023/10/02 00:43:00;;;;;;;16.30;8.23;;;15.30;1.00;;;;;;5036197;28;20120;-74
2023/10/02 00:45:38;;;;;;;18.45;8.25;;;15.40;1.00;;;;;;5061972;28;20471;-74
2023/10/02 00:50:50;;;;;;;16.80;7.45;;;15.50;1.00;;;;;;5042475;28;20407;-74
2023/10/02 00:53:24;;;;;;;18.25;7.80;;;15.60;1.00;;;;;;5056064;28;20064;-74
2023/10/02 00:55:51;;;;;;;16.98;8.40;;;15.70;1.00;;;;;;5032342;28;20049;-74
2023/10/02 00:58:19;;;;;;;17.50;7.25;;;15.70;1.00;;;;;;5053118;28;20507;-74
2023/10/02 01:00:53;;;;;;;17.27;6.90;;;15.80;1.00;;;;;;5048421;28;20118;-74
2023/10/02 01:03:18;;;;;;;17.85;7.65;;;15.90;1.00;;;;;;5026981;28;20034;-74
2023/10/02 01:08:23;;;;;;;17.42;7.50;;;16.00;1.00;;;;;;5053959;28;20037;-74
2023/10/02 01:10:59;;;;;;;19.88;8.32;;;16.00;1.00;;;;;;5031529;28;20048;-74
2023/10/02 01:13:32;;;;;;;19.48;8.48;;;16.10;1.00;;;;;;5048473;28;20503;-74
2023/10/02 01:16:08;;;;;;;19.02;8.02;;;16.10;1.00;;;;;;5055088;28;20082;-74
2023/10/02 01:18:35;;;;;;;;;;;16.10;1.00;;;;;;5052639;28;20041;-75
2023/10/02 01:21:09;;;;;;;19.58;7.75;;;16.10;1.00;;;;;;5025472;28;19927;-75
2023/10/02 01:24:07;;;;;;;19.15;7.97;;;16.10;1.00;;;;;;5030872;28;20078;-74
2023/10/02 01:26:41;;;;;;;16.73;8.18;;;16.20;1.00;;;;;;5042645;28;20041;-75
2023/10/02 01:29:10;;;;;;;15.48;7.82;;;16.20;1.00;;;;;;5058319;28;20059;-75
2023/10/02 01:31:44;;;;;;;21.05;8.80;;;16.20;1.00;;;;;;5046668;28;20890;-75
2023/10/02 01:34:12;;;;;;;19.90;8.38;;;16.30;1.00;;;;;;5025472;28;20147;-75
2023/10/02 01:36:41;;;;;;;17.00;8.43;;;16.30;1.00;;;;;;5045320;28;20047;-75
2023/10/02 01:39:14;;;;;;;16.55;8.70;;;16.30;1.00;;;;;;5055881;28;20039;-74
2023/10/02 01:41:41;;;;;;;24.25;9.45;;;16.20;1.00;;;;;;5042240;28;20048;-74
2023/10/02 01:44:11;;;;;;;18.48;8.15;;;16.10;1.00;;;;;;5023656;28;20044;-74
2023/10/02 01:46:49;;;;;;;18.58;8.75;;;16.00;1.00;;;;;;5038993;28;20041;-74
2023/10/02 01:49:25;;;;;;;19.15;8.55;;;15.90;1.00;;;;;;5029287;28;20052;-75
2023/10/02 01:51:55;;;;;;;18.38;9.02;;;15.90;1.00;;;;;;5032519;28;20063;-75
2023/10/02 01:54:31;;;;;;;21.23;9.32;;;15.80;1.00;;;;;;5049697;28;20052;-75
2023/10/02 01:56:59;;;;;;;20.23;8.23;;;15.90;1.00;;;;;;5032226;28;20049;-75
2023/10/02 01:59:25;;;;;;;23.75;9.77;;;15.90;1.00;;;;;;5045377;28;20044;-75
2023/10/02 02:01:53;;;;;;;21.17;9.55;;;15.90;1.00;;;;;;5042638;28;20036;-75
2023/10/02 02:04:32;;;;;;;19.20;8.85;;;15.90;1.00;;;;;;5031226;28;20047;-75
2023/10/02 02:07:00;;;;;;;20.55;8.82;;;16.00;1.00;;;;;;5022965;28;20041;-75
2023/10/02 02:09:33;;;;;;;20.85;9.15;;;16.10;1.00;;;;;;5043424;28;20059;-75
2023/10/02 02:12:12;;;;;;;18.02;8.98;;;16.10;1.00;;;;;;5026390;28;20036;-74
2023/10/02 02:14:52;;;;;;;20.55;9.48;;;16.20;1.00;;;;;;5047664;28;20055;-74
2023/10/02 02:17:24;;;;;;;17.70;8.77;;;16.20;1.00;;;;;;5048089;28;20045;-74
2023/10/02 02:19:50;;;;;;;20.38;9.18;;;16.20;1.00;;;;;;5053239;28;20040;-75
2023/10/02 02:22:25;;;;;;;20.27;9.25;;;16.20;1.00;;;;;;5038160;28;20064;-75
2023/10/02 02:24:53;;;;;;;26.95;10.27;;;16.20;1.00;;;;;;5059040;28;20609;-75
2023/10/02 02:27:19;;;;;;;21.02;9.88;;;16.20;1.00;;;;;;5048971;28;20044;-75
2023/10/02 02:29:54;;;;;;;20.70;9.38;;;16.10;1.00;;;;;;5056805;28;20048;-75
2023/10/02 02:32:36;;;;;;;20.27;8.93;;;16.10;1.00;;;;;;5035360;28;20048;-75
2023/10/02 02:35:03;;;;;;;25.17;9.45;;;16.10;1.00;;;;;;5027840;28;20048;-75
2023/10/02 02:37:28;;;;;;;19.27;9.10;;;16.10;1.00;;;;;;5031097;28;20662;-75
2023/10/02 02:40:21;;;;;;;20.73;9.63;;;16.00;1.00;;;;;;5028512;28;20140;-75
2023/10/02 02:42:41;;;;;;;18.17;9.85;;;16.00;1.00;;;;;;5044169;28;20049;-74
2023/10/02 02:45:24;;;;;;;19.83;9.32;;;15.90;1.00;;;;;;5045747;28;20040;-75
2023/10/02 02:47:51;;;;;;;20.15;9.07;;;15.90;1.00;;;;;;5041347;28;20068;-74
2023/10/02 02:50:16;;;;;;;21.40;9.57;;;15.80;1.00;;;;;;5031080;28;20041;-74
2023/10/02 02:52:42;;;;;;;21.13;8.98;;;15.90;1.00;;;;;;5028810;28;20614;-75
2023/10/02 02:55:13;;;;;;;21.40;9.55;;;15.90;1.00;;;;;;5031405;28;20041;-74
2023/10/02 02:57:45;;;;;;;20.83;9.35;;;15.90;1.00;;;;;;5030491;28;20040;-74
2023/10/02 03:00:29;;;;;;;23.15;9.65;;;16.00;1.00;;;;;;5047500;28;20056;-75
2023/10/02 03:02:57;;;;;;;23.92;10.23;;;16.10;1.00;;;;;;5043425;28;20040;-75
2023/10/02 03:05:37;;;;;;;20.85;9.80;;;16.10;1.00;;;;;;5053227;28;20152;-75
2023/10/02 03:08:05;;;;;;;21.85;9.95;;;16.20;1.00;;;;;;5047115;28;20609;-75
2023/10/02 03:10:46;;;;;;;19.40;8.93;;;16.20;1.00;;;;;;5053492;28;20499;-75
2023/10/02 03:13:16;;;;;;;19.38;9.38;;;16.30;1.00;;;;;;5041466;28;20049;-75
2023/10/02 03:15:45;;;;;;;21.35;9.15;;;16.30;1.00;;;;;;5042945;28;20609;-75
2023/10/02 03:18:30;;;;;;;20.15;9.00;;;16.30;1.00;;;;;;5059275;28;20033;-75
2023/10/02 03:23:33;;;;;;;;;;;16.30;1.00;;;;;;5042643;28;20040;-75
2023/10/02 03:25:59;;;;;;;23.63;10.13;;;16.30;1.00;;;;;;5039659;28;20375;-75
2023/10/02 03:28:27;;;;;;;20.10;8.77;;;16.40;1.00;;;;;;5039769;28;20052;-74
2023/10/02 03:30:54;;;;;;;18.48;8.77;;;16.40;1.00;;;;;;5018744;28;20112;-75
2023/10/02 03:33:20;;;;;;;19.35;9.15;;;16.40;1.00;;;;;;5024951;28;20472;-75
2023/10/02 03:35:58;;;;;;;19.23;9.30;;;16.30;1.00;;;;;;5050876;28;20126;-74
2023/10/02 03:38:32;;;;;;;22.33;9.50;;;16.30;1.00;;;;;;5043815;28;20040;-74
2023/10/02 03:41:02;;;;;;;19.83;8.43;;;16.20;1.00;;;;;;5046796;28;20053;-75
2023/10/02 03:43:34;;;;;;;20.70;8.73;;;16.10;1.00;;;;;;5027864;28;20052;-75
2023/10/02 03:46:04;;;;;;;21.42;8.95;;;16.10;1.00;;;;;;5030355;28;20056;-75
2023/10/02 03:48:34;;;;;;;17.63;9.52;;;16.00;1.00;;;;;;5045394;28;20049;-75
2023/10/02 03:51:03;;;;;;;19.58;9.75;;;15.90;1.00;;;;;;5046249;28;20051;-75
2023/10/02 03:53:29;;;;;;;19.38;9.23;;;15.80;1.00;;;;;;5045217;28;20060;-74
2023/10/02 03:58:53;;;;;;;19.27;9.02;;;15.70;1.00;;;;;;5059438;28;20048;-75
2023/10/02 04:01:30;;;;;;;23.10;8.85;;;15.60;1.00;;;;;;5051863;28;20040;-74
2023/10/02 04:04:19;;;;;;;22.88;9.90;;;15.60;1.00;;;;;;5045891;28;20029;-74
2023/10/02 04:06:44;;;;;;;25.80;10.23;;;15.60;1.00;;;;;;5050894;28;20051;-74
2023/10/02 04:09:24;;;;;;;19.10;9.27;;;15.50;1.00;;;;;;5050355;28;20045;-74
2023/10/02 04:11:56;;;;;;;21.48;9.45;;;15.60;8.60;;;;;;5049969;28;20563;-74
2023/10/02 04:14:32;;;;;;;21.50;9.18;;;15.60;10.70;;;;;;5027412;28;20044;-75
2023/10/02 04:17:14;;;;;;;;;;;15.60;12.40;;;;;;5026191;28;20068;-75
2023/10/02 04:19:48;;;;;;;23.15;9.98;;;15.60;22.40;;;;;;5043940;28;19924;-74
2023/10/02 04:22:22;;;;;;;26.75;10.68;;;15.60;22.00;;;;;;5036399;28;20037;-75
2023/10/02 04:24:58;;;;;;;20.15;10.02;;;15.60;20.30;;;;;;5045462;28;20040;-75
2023/10/02 04:32:39;;;;;;;19.25;9.07;;;15.60;29.20;;;;;;5064191;28;20045;-74
2023/10/02 04:35:43;;;;;;;20.52;9.15;;;15.60;25.00;;;;;;5033683;28;20051;-74
2023/10/02 04:37:58;;;;;;;19.90;9.48;;;15.60;25.90;;;;;;5044030;28;20095;-74
2023/10/02 04:40:37;;;;;;;22.10;9.38;;;15.50;28.30;;;;;;5050158;28;20045;-75
2023/10/02 04:43:19;;;;;;;21.90;10.38;;;15.50;28.90;;;;;;5029018;28;20171;-74
2023/10/02 04:45:52;;;;;;;20.05;9.40;;;15.50;33.10;;;;;;5045085;28;20131;-74
2023/10/02 04:48:25;;;;;;;23.70;9.75;;;15.50;34.40;;;;;;5032405;28;20051;-74
2023/10/02 04:50:53;;;;;;;22.88;9.75;;;15.40;37.60;;;;;;5044442;28;20098;-74
2023/10/02 04:53:22;;;;;;;21.85;9.23;;;15.30;41.80;;;;;;5044931;28;20060;-74
2023/10/02 04:56:21;;;;;;;21.00;9.77;;;15.30;44.90;;;;;;5047286;28;20473;-74
2023/10/02 04:58:49;;;;;;;22.05;10.45;;;15.30;51.60;;;;;;5053512;28;20117;-75
2023/10/02 05:01:41;;;;;;;17.67;9.05;;;15.20;61.80;;;;;;5054764;28;20049;-74
2023/10/02 05:04:08;;;;;;;21.58;9.98;;;15.20;64.20;;;;;;5049823;28;20037;-74
2023/10/02 05:06:44;;;;;;;25.00;10.27;;;15.30;71.00;;;;;;5027471;28;20039;-74
2023/10/02 05:11:52;;;;;;;21.85;9.85;;;15.20;79.60;;;;;;5048169;28;20131;-75
2023/10/02 05:14:47;;;;;;;21.42;10.48;;;15.20;76.60;;;;;;5055069;28;20048;-75
2023/10/02 05:17:38;;;;;;;24.55;9.77;;;15.10;78.90;;;;;;5028906;28;20187;-74
2023/10/02 05:20:07;;;;;;;23.13;10.38;;;15.10;82.00;;;;;;5049026;28;20517;-75
2023/10/02 05:22:36;;;;;;;25.23;10.68;;;15.10;90.20;;;;;;5025074;28;20073;-74
2023/10/02 05:25:07;;;;;;;22.27;10.52;;;15.10;91.30;;;;;;5047958;28;20068;-75
2023/10/02 05:27:37;;;;;;;20.63;9.98;;;15.10;94.30;;;;;;5031626;28;20106;-75
2023/10/02 05:30:12;;;;;;;20.50;10.20;;;15.10;97.50;;;;;;5066040;28;20045;-75
2023/10/02 05:32:38;;;;;;;21.60;9.75;;;15.10;98.10;;;;;;5048710;28;20058;-75
2023/10/02 05:37:41;;;;;;;23.20;10.30;;;15.10;99.60;;;;;;5045634;28;20045;-75
2023/10/02 05:48:27;;;;;;;22.83;11.00;;;15.00;99.90;;;;;;5046227;28;20552;-75
2023/10/02 05:50:57;;;;;;;18.15;9.30;;;15.00;99.90;;;;;;5029024;28;20071;-74
2023/10/02 05:53:26;;;;;;;20.95;10.68;;;15.00;99.90;;;;;;5025872;28;20049;-75
2023/10/02 05:56:05;;;;;;;20.15;10.55;;;14.90;99.90;;;;;;5048012;28;20033;-74
2023/10/02 05:58:35;;;;;;;22.83;9.65;;;14.90;99.90;;;;;;5043119;28;20041;-74
2023/10/02 06:01:12;;;;;;;21.42;10.10;;;15.00;99.90;;;;;;5046989;28;20024;-74
2023/10/02 06:03:37;;;;;;;;;;;15.00;99.90;;;;;;5047099;28;20492;-76
2023/10/02 06:06:18;;;;;;;22.33;10.53;;;15.00;99.90;;;;;;5047592;28;19970;-74
2023/10/02 06:09:03;;;;;;;23.00;10.73;;;15.00;99.90;;;;;;5038309;28;20087;-74
2023/10/02 06:11:33;;;;;;;22.52;10.02;;;15.00;99.90;;;;;;5041640;28;20045;-74
2023/10/02 06:14:09;;;;;;;23.65;10.15;;;15.00;99.90;;;;;;5032304;28;20040;-74
2023/10/02 06:16:40;;;;;;;20.13;9.90;;;15.00;99.90;;;;;;5030240;28;20041;-74
2023/10/02 06:19:13;;;;;;;17.05;9.15;;;15.00;99.90;;;;;;5029115;28;20037;-74
2023/10/02 06:21:46;;;;;;;22.67;9.32;;;15.00;99.90;;;;;;5046922;28;20051;-74
2023/10/02 06:24:14;;;;;;;22.63;9.65;;;15.20;99.90;;;;;;5048152;28;20123;-74
2023/10/02 06:26:57;;;;;;;22.15;10.20;;;15.30;99.90;;;;;;5046184;28;20055;-74
2023/10/02 06:29:35;;;;;;;21.90;10.20;;;15.50;99.90;;;;;;5055796;28;20128;-74
2023/10/02 06:32:05;;;;;;;18.40;9.73;;;15.70;99.90;;;;;;5029221;28;20037;-74
2023/10/02 06:34:38;;;;;;;25.52;10.43;;;15.80;99.90;;;;;;5023719;28;20047;-74
2023/10/02 06:37:11;;;;;;;20.33;9.55;;;15.90;99.90;;;;;;5045888;28;20044;-74
2023/10/02 06:40:07;;;;;;;20.70;9.48;;;16.00;99.90;;;;;;5047092;28;20132;-74
2023/10/02 06:42:33;;;;;;;18.67;9.52;;;16.10;99.90;;;;;;5029623;28;20045;-74
2023/10/02 06:45:02;;;;;;;21.45;9.40;;;16.10;99.90;;;;;;5047741;28;20128;-74
2023/10/02 06:47:32;;;;;;;23.33;9.95;;;16.20;99.90;;;;;;5030263;28;20094;-74
2023/10/02 06:50:21;;;;;;;24.67;9.82;;;16.20;98.80;;;;;;5044733;28;20450;-74
2023/10/02 06:52:49;;;;;;;23.67;9.68;;;16.20;94.70;;;;;;5025979;28;20391;-74
2023/10/02 06:55:17;;;;;;;20.98;9.85;;;16.20;93.30;;;;;;5042759;28;20044;-74
2023/10/02 06:57:49;;;;;;;23.83;10.45;;;16.20;91.20;;;;;;5024573;28;20052;-74
2023/10/02 07:00:19;;;;;;;19.70;9.00;;;16.20;88.30;;;;;;5028430;28;20404;-74
2023/10/02 07:02:56;;;;;;;22.25;9.95;;;16.20;84.40;;;;;;5028750;28;20069;-74
2023/10/02 07:05:32;;;;;;;18.35;9.30;;;16.10;84.00;;;;;;5053683;28;20032;-74
2023/10/02 07:08:26;;;;;;;22.55;9.63;;;16.10;86.30;;;;;;5030232;28;20050;-74
2023/10/02 07:10:53;;;;;;;19.58;9.38;;;16.10;90.60;;;;;;5046643;28;20503;-74
2023/10/02 07:13:20;;;;;;;23.40;9.88;;;16.20;93.60;;;;;;5044267;28;20037;-74
2023/10/02 07:15:47;;;;;;;21.33;9.80;;;16.30;92.20;;;;;;5027739;28;20037;-74
2023/10/02 07:18:14;;;;;;;25.08;9.85;;;16.30;90.50;;;;;;5029375;28;20139;-73
2023/10/02 07:20:43;;;;;;;20.10;9.88;;;16.40;85.70;;;;;;5047001;28;20049;-74
2023/10/02 07:23:19;;;;;;;20.35;9.73;;;16.40;80.20;;;;;;5029750;28;20596;-74
2023/10/02 07:25:50;;;;;;;22.70;11.13;;;16.40;75.00;;;;;;5044494;28;20669;-74
2023/10/02 07:28:22;;;;;;;26.20;10.15;;;16.40;72.50;;;;;;5026949;28;20033;-74
2023/10/02 07:30:50;;;;;;;19.88;9.43;;;16.40;68.80;;;;;;5046728;28;20403;-74
2023/10/02 07:33:19;;;;;;;19.50;10.05;;;16.40;69.40;;;;;;5059672;28;20036;-74
2023/10/02 07:35:52;;;;;;;21.88;9.63;;;16.40;70.30;;;;;;5047216;28;20033;-74
2023/10/02 07:38:29;;;;;;;22.35;9.73;;;16.40;69.70;;;;;;5034965;28;20372;-74
2023/10/02 07:40:58;;;;;;;20.38;9.82;;;16.40;70.60;;;;;;5044306;28;20044;-74
2023/10/02 07:43:24;;;;;;;21.23;9.88;;;16.50;74.20;;;;;;5040496;28;20503;-74
2023/10/02 07:46:01;;;;;;;23.70;11.07;;;16.50;73.80;;;;;;5043919;28;20037;-74
2023/10/02 07:48:33;;;;;;;21.13;9.88;;;16.60;72.90;;;;;;5039904;28;20061;-74
2023/10/02 07:51:03;;;;;;;22.52;10.20;;;16.70;70.50;;;;;;5044199;28;20051;-74
2023/10/02 07:53:43;;;;;;;23.15;10.13;;;16.90;61.90;;;;;;5035052;28;20170;-74
2023/10/02 07:56:11;;;;;;;25.90;10.68;;;17.00;54.80;;;;;;5023547;28;20530;-74
2023/10/02 07:58:39;;;;;;;18.95;9.55;;;17.10;44.80;;;;;;5044131;28;20095;-73
2023/10/02 08:01:11;;;;;;;20.63;9.63;;;17.20;36.80;;;;;;5060180;28;20052;-74
2023/10/02 08:03:44;;;;;;;20.45;9.40;;;17.30;26.20;;;;;;5030082;28;20131;-74
2023/10/02 08:06:21;;;;;;;22.95;9.60;;;17.40;20.80;;;;;;5042759;28;20444;-74
2023/10/02 08:11:39;;;;;;;23.30;10.25;;;17.60;1.00;;;;;;5044382;28;20049;-74
2023/10/02 08:14:06;;;;;;;21.90;9.98;;;17.70;1.00;;;;;;5040970;28;20056;-74
2023/10/02 08:16:58;;;;;;;21.55;9.88;;;17.70;1.00;;;;;;5045918;28;20503;-74
2023/10/02 08:19:20;;;;;;;25.67;10.85;;;17.80;1.00;;;;;;5046493;28;20048;-74
2023/10/02 08:21:46;;;;;;;21.90;10.13;;;17.90;1.00;;;;;;5045144;28;20099;-74
2023/10/02 08:24:13;;;;;;;23.83;10.48;;;17.90;1.00;;;;;;5061139;28;20091;-74
2023/10/02 08:26:40;;;;;;;21.90;9.85;;;18.00;1.00;;;;;;5041508;28;20052;-74
2023/10/02 08:29:08;;;;;;;23.48;10.77;;;18.10;1.00;;;;;;5043274;28;20037;-74
2023/10/02 08:31:42;;;;;;;20.40;10.07;;;18.10;1.00;;;;;;5027549;28;20056;-74
2023/10/02 08:34:09;;;;;;;24.50;10.43;;;18.30;1.00;;;;;;5043460;28;20380;-74
2023/10/02 08:36:37;;;;;;;25.33;11.27;;;18.40;1.00;;;;;;5058451;28;20033;-74
2023/10/02 08:39:03;;;;;;;22.05;10.32;;;18.60;1.00;;;;;;5052883;28;20045;-74
2023/10/02 08:41:28;;;;;;;21.27;10.43;;;18.80;1.00;;;;;;5043488;28;20029;-74
2023/10/02 08:43:54;;;;;;;22.23;10.48;;;19.00;1.00;;;;;;5027354;28;20491;-74
2023/10/02 08:46:23;;;;;;;21.52;10.23;;;19.10;1.00;;;;;;5045130;28;20044;-74
2023/10/02 08:48:55;;;;;;;21.75;10.15;;;19.40;1.00;;;;;;5044137;28;20167;-74
2023/10/02 08:51:35;;;;;;;21.27;10.27;;;19.50;1.00;;;;;;5055702;28;20595;-74
2023/10/02 08:54:05;;;;;;;23.48;10.68;;;19.60;99.90;;;;;;5061372;28;20426;-75
2023/10/02 08:56:43;;;;;;;24.73;10.88;;;19.70;99.90;;;;;;5045357;28;20057;-75
2023/10/02 08:59:26;;;;;;;21.50;10.00;;;19.90;99.90;;;;;;5032903;28;20037;-74
2023/10/02 09:02:14;;;;;;;23.30;10.85;;;20.10;99.90;;;;;;5040772;28;20037;-75
2023/10/02 09:04:57;;;;;;;23.92;10.38;;;20.40;99.90;;;;;;5045583;28;20041;-74
2023/10/02 09:07:24;;;;;;;21.63;10.63;;;20.50;99.90;;;;;;5045487;28;20586;-74
2023/10/02 09:10:12;;;;;;;23.58;10.85;;;20.60;99.90;;;;;;5047492;28;20041;-74
2023/10/02 09:12:48;;;;;;;23.85;10.23;;;20.60;52.70;;;;;;5046297;28;20468;-75
2023/10/02 09:15:29;;;;;;;20.65;9.55;;;20.60;99.90;;;;;;5045095;28;20045;-75
2023/10/02 09:17:57;;;;;;;21.25;9.90;;;20.70;1.00;;;;;;5042683;28;20037;-74
2023/10/02 09:20:38;;;;;;;20.20;9.68;;;20.70;1.00;;;;;;5041259;28;20052;-74
2023/10/02 09:23:08;;;;;;;20.38;9.80;;;20.70;1.90;;;;;;5028841;28;20090;-74
2023/10/02 09:25:40;;;;;;;18.92;9.73;;;20.70;1.00;;;;;;5047488;28;20040;-74
2023/10/02 09:28:13;;;;;;;20.67;9.48;;;20.90;1.00;;;;;;5032559;28;20033;-74
2023/10/02 09:30:41;;;;;;;19.55;9.50;;;20.90;1.00;;;;;;5032010;28;20469;-74
2023/10/02 09:33:22;;;;;;;22.52;9.55;;;21.00;1.00;;;;;;5032746;28;20108;-75
2023/10/02 09:35:51;;;;;;;23.83;10.50;;;21.10;1.00;;;;;;5030030;28;20123;-75
2023/10/02 09:38:17;;;;;;;20.08;9.65;;;21.20;1.00;;;;;;5064553;28;20045;-75
2023/10/02 09:40:54;;;;;;;20.88;9.10;;;21.30;1.00;;;;;;5032222;28;20404;-75
2023/10/02 09:43:33;;;;;;;19.55;10.20;;;21.40;99.90;;;;;;5045057;28;20484;-75
2023/10/02 09:46:05;;;;;;;22.83;9.40;;;21.60;99.90;;;;;;5058643;28;20044;-75
2023/10/02 09:48:46;;;;;;;23.52;9.82;;;21.90;99.90;;;;;;5029223;28;20447;-75
2023/10/02 09:51:30;;;;;;;24.42;9.45;;;22.20;99.90;;;;;;5048870;28;20044;-75
2023/10/02 09:54:05;;;;;;;20.25;9.77;;;22.10;99.90;;;;;;5030122;28;20159;-75
2023/10/02 09:56:51;;;;;;;19.75;9.48;;;21.90;99.90;;;;;;5041819;28;20451;-75
2023/10/02 09:59:24;;;;;;;19.55;9.30;;;21.70;99.90;;;;;;5044311;28;20072;-75
2023/10/02 10:02:08;;;;;;;24.70;9.75;;;21.60;99.90;;;;;;5030474;28;20036;-76
2023/10/02 10:05:00;;;;;;;24.38;10.45;;;21.40;99.90;;;;;;5031621;28;20442;-74
2023/10/02 10:10:47;;;;;;;22.00;9.73;;;21.30;99.90;;;;;;5043119;28;20443;-75
2023/10/02 10:13:50;;;;;;;21.35;10.05;;;21.50;99.90;;;;;;5040053;28;20037;-75
2023/10/02 10:16:23;;;;;;;21.98;10.88;;;21.70;99.90;;;;;;5028587;28;20057;-74
2023/10/02 10:19:41;;;;;;;23.45;10.30;;;21.70;99.90;;;;;;5037994;28;20419;-75
2023/10/02 10:21:57;;;;;;;23.35;10.07;;;21.70;99.90;;;;;;5029174;28;20043;-75
2023/10/02 10:24:55;;;;;;;26.27;11.73;;;21.70;99.90;;;;;;5026446;28;20044;-75
2023/10/02 10:27:42;;;;;;;19.80;10.77;;;21.90;99.90;;;;;;5029136;28;20067;-75
2023/10/02 10:30:24;;;;;;;22.85;10.93;;;22.10;99.90;;;;;;5036618;28;20071;-75
2023/10/02 10:35:48;;;;;;;27.73;12.18;;;22.20;99.90;;;;;;5035062;28;20046;-75
2023/10/02 10:38:26;;;;;;;24.23;11.90;;;22.30;99.90;;;;;;5047514;28;20069;-75
2023/10/02 10:40:55;;;;;;;28.40;12.65;;;22.40;99.90;;;;;;5024131;28;20128;-75
2023/10/02 10:43:26;;;;;;;23.90;12.85;;;22.70;99.90;;;;;;5040912;28;20045;-75
2023/10/02 10:45:54;;;;;;;26.92;11.88;;;22.90;99.90;;;;;;5026205;28;20033;-76
2023/10/02 10:48:23;;;;;;;27.35;12.57;;;22.90;99.90;;;;;;5037357;28;20069;-75
2023/10/02 10:50:59;;;;;;;26.70;12.75;;;23.10;99.90;;;;;;5037358;28;20037;-76
2023/10/02 10:53:29;;;;;;;24.27;12.07;;;23.20;99.90;;;;;;5022183;28;20053;-76
2023/10/02 10:56:27;;;;;;;23.52;13.32;;;23.10;99.90;;;;;;5045143;28;20044;-76
2023/10/02 10:59:10;;;;;;;27.90;13.27;;;23.00;99.90;;;;;;5040894;28;20047;-76
2023/10/02 11:01:47;;;;;;;25.05;12.63;;;22.80;99.90;;;;;;5032254;28;20156;-76
2023/10/02 11:04:13;;;;;;;26.48;12.77;;;22.80;99.90;;;;;;5036902;28;20064;-75
2023/10/02 11:06:42;;;;;;;30.27;12.48;;;22.90;99.90;;;;;;5027835;28;20507;-75
2023/10/02 11:09:12;;;;;;;26.42;12.32;;;22.80;99.90;;;;;;5037129;28;20036;-76
2023/10/02 11:11:49;;;;;;;28.27;12.57;;;22.60;99.90;;;;;;5024384;28;20044;-75
2023/10/02 11:14:20;;;;;;;27.25;12.52;;;22.70;99.90;;;;;;5042492;28;20076;-76
2023/10/02 11:17:01;;;;;;;24.00;12.48;;;22.60;99.90;;;;;;5017838;28;20066;-76
2023/10/02 11:22:14;;;;;;;28.90;13.02;;;22.50;99.90;;;;;;5053252;28;20127;-76
2023/10/02 11:24:48;;;;;;;26.55;12.30;;;22.50;99.90;;;;;;5041903;28;20449;-75
2023/10/02 11:27:18;;;;;;;26.83;12.25;;;22.50;99.90;;;;;;5040351;28;20103;-76
2023/10/02 11:30:03;;;;;;;25.40;12.88;;;22.70;99.90;;;;;;5042444;28;20040;-75
2023/10/02 11:32:58;;;;;;;27.02;13.52;;;23.00;99.90;;;;;;5042539;28;20037;-76
2023/10/02 11:35:28;;;;;;;27.00;12.13;;;23.30;99.90;;;;;;5045337;28;20059;-75
2023/10/02 11:37:55;;;;;;;27.15;13.55;;;23.50;99.90;;;;;;5023680;28;20063;-75
2023/10/02 11:40:24;;;;;;;25.92;12.40;;;24.00;99.90;;;;;;5044171;28;20045;-75
2023/10/02 11:42:53;;;;;;;31.23;13.57;;;24.40;78.80;;;;;;5025835;28;20422;-76
2023/10/02 11:45:19;;;;;;;24.83;13.02;;;25.00;31.10;;;;;;5028380;28;20072;-75
2023/10/02 11:47:44;;;;;;;27.05;13.05;;;25.40;1.00;;;;;;5028032;28;20087;-75
2023/10/02 11:50:12;;;;;;;27.88;13.57;;;25.50;1.00;;;;;;5028430;28;20045;-76
2023/10/02 11:52:38;;;;;;;22.85;12.57;;;25.70;1.00;;;;;;5033727;28;20531;-75
2023/10/02 11:55:04;;;;;;;25.42;12.57;;;26.40;1.00;;;;;;5031960;28;20045;-76
2023/10/02 11:57:30;;;;;;;24.02;11.77;;;26.60;1.00;;;;;;5038903;28;20044;-76
2023/10/02 11:59:55;;;;;;;25.35;12.10;;;26.30;1.00;;;;;;5042255;28;20570;-75
2023/10/02 12:02:21;;;;;;;23.65;11.90;;;25.80;1.00;;;;;;5028487;28;20025;-75
2023/10/02 12:04:47;;;;;;;23.20;11.57;;;25.20;1.00;;;;;;5041631;28;20063;-75
2023/10/02 12:07:16;;;;;;;18.13;10.48;;;25.20;1.00;;;;;;5023271;28;20479;-75
2023/10/02 12:09:49;;;;;;;24.38;12.20;;;25.30;1.00;;;;;;5038428;28;20033;-75
2023/10/02 12:12:16;;;;;;;21.38;11.63;;;25.40;1.00;;;;;;5036866;28;20052;-75
2023/10/02 12:14:42;;;;;;;23.38;12.05;;;25.40;1.00;;;;;;5039483;28;20036;-75
2023/10/02 12:17:11;;;;;;;21.85;12.20;;;24.80;1.00;;;;;;5040250;28;20080;-74
2023/10/02 12:19:39;;;;;;;25.05;12.05;;;24.50;1.00;;;;;;5058453;28;20051;-74
2023/10/02 12:22:06;;;;;;;23.65;10.98;;;24.40;1.00;;;;;;5019405;28;20037;-74
2023/10/02 12:24:34;;;;;;;25.13;12.43;;;24.40;1.00;;;;;;5036396;28;20834;-76
2023/10/02 12:27:00;;;;;;;21.95;10.35;;;24.20;1.00;;;;;;5029815;28;20048;-76
2023/10/02 12:29:25;;;;;;;26.10;12.23;;;24.10;1.00;;;;;;5030767;28;20656;-76
2023/10/02 12:31:52;;;;;;;20.38;10.77;;;24.10;1.00;;;;;;5028208;28;20041;-76
2023/10/02 12:34:19;;;;;;;23.08;12.10;;;24.20;1.00;;;;;;5053881;28;20045;-76
2023/10/02 12:36:45;;;;;;;24.13;11.93;;;24.30;1.00;;;;;;5040585;28;20515;-76
2023/10/02 12:39:13;;;;;;;23.02;12.00;;;24.30;1.00;;;;;;5035453;28;20047;-76
2023/10/02 12:41:42;;;;;;;24.42;12.73;;;24.20;1.00;;;;;;5028461;28;20032;-76
2023/10/02 12:44:09;;;;;;;24.70;12.35;;;24.10;1.00;;;;;;5046642;28;20122;-76
2023/10/02 12:46:50;;;;;;;22.25;11.38;;;23.90;1.00;;;;;;5027607;28;20430;-76
2023/10/02 12:49:17;;;;;;;22.70;11.98;;;23.70;1.00;;;;;;5060777;28;20055;-76
2023/10/02 12:51:43;;;;;;;27.15;11.63;;;23.80;5.00;;;;;;5036830;28;20653;-76
2023/10/02 12:54:09;;;;;;;23.48;11.88;;;24.00;8.10;;;;;;5045295;28;20043;-76
2023/10/02 12:56:36;;;;;;;22.98;11.68;;;24.30;3.00;;;;;;5028824;28;20522;-76
2023/10/02 12:59:04;;;;;;;22.85;11.48;;;24.50;1.00;;;;;;5029117;28;20403;-76
2023/10/02 13:01:30;;;;;;;20.27;10.80;;;24.50;1.00;;;;;;5041659;28;20036;-76
2023/10/02 13:03:56;;;;;;;23.73;11.70;;;24.50;1.00;;;;;;5046813;28;20116;-76
2023/10/02 13:06:26;;;;;;;19.95;11.57;;;24.20;1.00;;;;;;5048383;28;20087;-76
2023/10/02 13:09:02;;;;;;;23.45;11.32;;;23.90;1.00;;;;;;5046600;28;20033;-75
2023/10/02 13:11:28;;;;;;;25.95;11.30;;;23.70;1.00;;;;;;5029947;28;20045;-74
2023/10/02 13:13:55;;;;;;;20.92;11.35;;;23.50;1.00;;;;;;5043985;28;20501;-76
2023/10/02 13:16:23;;;;;;;22.35;11.63;;;23.40;1.00;;;;;;5029623;28;20098;-73
2023/10/02 13:18:50;;;;;;;23.23;11.45;;;23.20;2.70;;;;;;5042814;28;20041;-73
2023/10/02 13:21:19;;;;;;;23.13;10.82;;;23.10;19.30;;;;;;5044836;28;20041;-74
2023/10/02 13:23:51;;;;;;;20.92;10.05;;;23.10;35.30;;;;;;5035586;28;21650;-73
2023/10/02 13:26:17;;;;;;;24.67;11.02;;;23.30;56.70;;;;;;5028547;28;20430;-74
2023/10/02 13:28:48;;;;;;;18.65;10.15;;;23.40;58.30;;;;;;5035745;28;20095;-75
2023/10/02 13:31:19;;;;;;;20.48;10.50;;;23.50;50.90;;;;;;5046735;28;20059;-75
2023/10/02 13:33:51;;;;;;;21.17;10.85;;;23.60;32.00;;;;;;5045377;28;20041;-75
2023/10/02 13:36:22;;;;;;;22.23;9.88;;;23.50;30.70;;;;;;5025010;28;20055;-76
2023/10/02 13:38:48;;;;;;;23.13;10.23;;;23.50;35.80;;;;;;5048935;28;20044;-76
2023/10/02 13:41:14;;;;;;;23.77;10.95;;;23.50;39.00;;;;;;5048133;28;20045;-76
2023/10/02 13:43:45;;;;;;;20.65;10.43;;;23.60;37.90;;;;;;5058831;28;20378;-76
2023/10/02 13:46:14;;;;;;;20.67;9.85;;;23.60;25.20;;;;;;5043043;28;20040;-76
2023/10/02 13:48:40;;;;;;;17.35;9.07;;;23.60;26.00;;;;;;5029574;28;20687;-76
2023/10/02 13:51:07;;;;;;;19.75;10.52;;;23.60;33.40;;;;;;5027032;28;20116;-76
2023/10/02 13:53:36;;;;;;;22.17;10.40;;;23.70;30.10;;;;;;5040123;28;20079;-76